METAR Data

Data at: 1854 UTC 21 Nov 2018

METAR for:KACK (Nantucket Mem Arpt, MA, US)
Text:KACK 211753Z 24016G21KT 10SM OVC038 07/00 A2993 RMK AO2 SLP134 T00720000 10078 20017 58034
Temperature: 7.2°C ( 45°F)
Dewpoint: 0.0°C ( 32°F) [RH = 60%]
Pressure (altimeter):29.93 inches Hg (1013.6 mb) [Sea level pressure: 1013.4 mb]
Winds:from the WSW (240 degrees) at 18 MPH (16 knots; 8.2 m/s) gusting to 24 MPH (21 knots; 10.8 m/s)
Visibility:10 or more sm (16+ km)
Ceiling:3800 feet AGL
Clouds: overcast cloud deck at 3800 feet AGL